sensor_id;sensor_type;location;lat;lon;timestamp;P1;durP1;ratioP1;P2;durP2;ratioP2
70026;SDS011;57506;50.092;15.804;2022-09-09T00:00:15;21.00;;;4.53;;
70026;SDS011;57506;50.092;15.804;2022-09-09T00:02:46;125.18;;;7.30;;
70026;SDS011;57506;50.092;15.804;2022-09-09T00:05:42;8.80;;;3.40;;
70026;SDS011;57506;50.092;15.804;2022-09-09T00:08:18;27.75;;;7.43;;
70026;SDS011;57506;50.092;15.804;2022-09-09T00:10:49;15.07;;;7.15;;
70026;SDS011;57506;50.092;15.804;2022-09-09T00:13:28;113.75;;;7.88;;
70026;SDS011;57506;50.092;15.804;2022-09-09T00:18:49;13.07;;;7.17;;
70026;SDS011;57506;50.092;15.804;2022-09-09T00:21:17;18.35;;;5.15;;
70026;SDS011;57506;50.092;15.804;2022-09-09T00:23:50;10.18;;;4.05;;
70026;SDS011;57506;50.092;15.804;2022-09-09T00:31:37;125.00;;;7.07;;
70026;SDS011;57506;50.092;15.804;2022-09-09T00:34:13;7.28;;;2.25;;
70026;SDS011;57506;50.092;15.804;2022-09-09T00:36:43;5.45;;;2.92;;
70026;SDS011;57506;50.092;15.804;2022-09-09T00:39:25;5.75;;;3.33;;
70026;SDS011;57506;50.092;15.804;2022-09-09T00:42:13;12.27;;;3.53;;
70026;SDS011;57506;50.092;15.804;2022-09-09T00:47:28;10.82;;;5.40;;
70026;SDS011;57506;50.092;15.804;2022-09-09T00:57:43;31.13;;;9.07;;
70026;SDS011;57506;50.092;15.804;2022-09-09T01:00:24;72.53;;;6.30;;
70026;SDS011;57506;50.092;15.804;2022-09-09T01:08:28;44.15;;;4.15;;
70026;SDS011;57506;50.092;15.804;2022-09-09T01:10:58;5.13;;;2.70;;
70026;SDS011;57506;50.092;15.804;2022-09-09T01:15:56;21.87;;;3.30;;
70026;SDS011;57506;50.092;15.804;2022-09-09T01:18:26;16.25;;;3.42;;
70026;SDS011;57506;50.092;15.804;2022-09-09T01:28:42;55.83;;;5.30;;
70026;SDS011;57506;50.092;15.804;2022-09-09T01:31:11;18.92;;;5.65;;
70026;SDS011;57506;50.092;15.804;2022-09-09T01:33:42;20.85;;;4.32;;
70026;SDS011;57506;50.092;15.804;2022-09-09T01:38:42;15.60;;;4.82;;
70026;SDS011;57506;50.092;15.804;2022-09-09T01:41:07;12.50;;;4.50;;
70026;SDS011;57506;50.092;15.804;2022-09-09T01:43:33;10.90;;;4.47;;
70026;SDS011;57506;50.092;15.804;2022-09-09T01:45:59;14.67;;;7.50;;
70026;SDS011;57506;50.092;15.804;2022-09-09T01:48:26;18.88;;;7.82;;
70026;SDS011;57506;50.092;15.804;2022-09-09T01:50:53;21.23;;;9.27;;
70026;SDS011;57506;50.092;15.804;2022-09-09T01:53:19;22.57;;;9.30;;
70026;SDS011;57506;50.092;15.804;2022-09-09T01:56:04;14.48;;;7.05;;
70026;SDS011;57506;50.092;15.804;2022-09-09T01:58:56;43.05;;;7.13;;
70026;SDS011;57506;50.092;15.804;2022-09-09T02:04:33;83.33;;;7.43;;
70026;SDS011;57506;50.092;15.804;2022-09-09T02:07:54;12.00;;;5.40;;
70026;SDS011;57506;50.092;15.804;2022-09-09T02:13:02;19.38;;;5.25;;
70026;SDS011;57506;50.092;15.804;2022-09-09T02:15:34;27.42;;;6.63;;
70026;SDS011;57506;50.092;15.804;2022-09-09T02:18:30;22.47;;;7.47;;
70026;SDS011;57506;50.092;15.804;2022-09-09T02:21:00;86.40;;;7.95;;
70026;SDS011;57506;50.092;15.804;2022-09-09T02:23:28;11.07;;;4.38;;
70026;SDS011;57506;50.092;15.804;2022-09-09T02:25:57;7.63;;;3.97;;
70026;SDS011;57506;50.092;15.804;2022-09-09T02:28:24;34.72;;;4.68;;
70026;SDS011;57506;50.092;15.804;2022-09-09T02:30:53;7.90;;;3.97;;
70026;SDS011;57506;50.092;15.804;2022-09-09T02:33:22;48.58;;;5.72;;
70026;SDS011;57506;50.092;15.804;2022-09-09T02:35:51;76.95;;;8.07;;
70026;SDS011;57506;50.092;15.804;2022-09-09T02:38:18;63.80;;;8.68;;
70026;SDS011;57506;50.092;15.804;2022-09-09T02:40:47;49.65;;;6.35;;
70026;SDS011;57506;50.092;15.804;2022-09-09T02:43:16;34.90;;;6.47;;
70026;SDS011;57506;50.092;15.804;2022-09-09T02:45:48;12.98;;;5.88;;
70026;SDS011;57506;50.092;15.804;2022-09-09T02:54:38;10.88;;;5.38;;
70026;SDS011;57506;50.092;15.804;2022-09-09T02:59:39;7.05;;;3.80;;
70026;SDS011;57506;50.092;15.804;2022-09-09T03:02:06;7.45;;;4.20;;
70026;SDS011;57506;50.092;15.804;2022-09-09T03:04:32;6.03;;;3.70;;
70026;SDS011;57506;50.092;15.804;2022-09-09T03:06:58;6.20;;;3.10;;
70026;SDS011;57506;50.092;15.804;2022-09-09T03:09:24;6.20;;;2.60;;
70026;SDS011;57506;50.092;15.804;2022-09-09T03:11:51;7.35;;;2.72;;
70026;SDS011;57506;50.092;15.804;2022-09-09T03:14:17;4.97;;;2.70;;
70026;SDS011;57506;50.092;15.804;2022-09-09T03:16:46;6.13;;;3.30;;
70026;SDS011;57506;50.092;15.804;2022-09-09T03:19:12;6.93;;;3.90;;
70026;SDS011;57506;50.092;15.804;2022-09-09T03:21:37;8.65;;;4.78;;
70026;SDS011;57506;50.092;15.804;2022-09-09T03:24:04;11.23;;;5.20;;
70026;SDS011;57506;50.092;15.804;2022-09-09T03:26:30;31.67;;;4.25;;
70026;SDS011;57506;50.092;15.804;2022-09-09T03:28:56;5.22;;;2.53;;
70026;SDS011;57506;50.092;15.804;2022-09-09T03:31:22;4.90;;;2.50;;
70026;SDS011;57506;50.092;15.804;2022-09-09T03:33:47;4.53;;;2.22;;
70026;SDS011;57506;50.092;15.804;2022-09-09T03:36:13;4.40;;;2.20;;
70026;SDS011;57506;50.092;15.804;2022-09-09T03:38:40;7.00;;;2.38;;
70026;SDS011;57506;50.092;15.804;2022-09-09T03:41:05;7.80;;;2.25;;
70026;SDS011;57506;50.092;15.804;2022-09-09T03:43:32;4.10;;;2.17;;
70026;SDS011;57506;50.092;15.804;2022-09-09T03:45:58;5.97;;;2.50;;
70026;SDS011;57506;50.092;15.804;2022-09-09T03:48:24;6.40;;;2.80;;
70026;SDS011;57506;50.092;15.804;2022-09-09T03:50:53;5.35;;;2.78;;
70026;SDS011;57506;50.092;15.804;2022-09-09T03:53:20;6.00;;;3.30;;
70026;SDS011;57506;50.092;15.804;2022-09-09T03:55:48;4.53;;;2.42;;
70026;SDS011;57506;50.092;15.804;2022-09-09T03:58:18;5.55;;;2.30;;
70026;SDS011;57506;50.092;15.804;2022-09-09T04:00:52;4.20;;;1.60;;
70026;SDS011;57506;50.092;15.804;2022-09-09T04:03:28;5.30;;;2.80;;
70026;SDS011;57506;50.092;15.804;2022-09-09T04:05:54;5.85;;;2.88;;
70026;SDS011;57506;50.092;15.804;2022-09-09T04:08:22;4.30;;;2.47;;
70026;SDS011;57506;50.092;15.804;2022-09-09T04:10:50;6.05;;;2.53;;
70026;SDS011;57506;50.092;15.804;2022-09-09T04:13:17;7.20;;;2.65;;
70026;SDS011;57506;50.092;15.804;2022-09-09T04:15:43;5.93;;;2.90;;
70026;SDS011;57506;50.092;15.804;2022-09-09T04:18:10;5.40;;;2.90;;
70026;SDS011;57506;50.092;15.804;2022-09-09T04:20:36;4.73;;;2.70;;
70026;SDS011;57506;50.092;15.804;2022-09-09T04:23:02;5.13;;;2.75;;
70026;SDS011;57506;50.092;15.804;2022-09-09T04:25:29;9.45;;;3.38;;
70026;SDS011;57506;50.092;15.804;2022-09-09T04:27:55;12.20;;;4.13;;
70026;SDS011;57506;50.092;15.804;2022-09-09T04:30:21;8.70;;;4.30;;
70026;SDS011;57506;50.092;15.804;2022-09-09T04:32:47;8.18;;;3.67;;
70026;SDS011;57506;50.092;15.804;2022-09-09T04:35:13;5.43;;;2.53;;
70026;SDS011;57506;50.092;15.804;2022-09-09T04:37:39;3.80;;;1.83;;
70026;SDS011;57506;50.092;15.804;2022-09-09T04:40:05;4.50;;;2.20;;
70026;SDS011;57506;50.092;15.804;2022-09-09T04:42:37;17.40;;;1.98;;
70026;SDS011;57506;50.092;15.804;2022-09-09T04:45:04;5.47;;;1.70;;
70026;SDS011;57506;50.092;15.804;2022-09-09T04:47:31;3.53;;;1.70;;
70026;SDS011;57506;50.092;15.804;2022-09-09T04:49:57;5.07;;;2.00;;
70026;SDS011;57506;50.092;15.804;2022-09-09T04:52:23;4.47;;;1.97;;
70026;SDS011;57506;50.092;15.804;2022-09-09T04:54:48;4.37;;;2.30;;
70026;SDS011;57506;50.092;15.804;2022-09-09T04:57:14;22.33;;;4.20;;
70026;SDS011;57506;50.092;15.804;2022-09-09T04:59:39;6.55;;;3.38;;
70026;SDS011;57506;50.092;15.804;2022-09-09T05:04:43;9.70;;;4.60;;
70026;SDS011;57506;50.092;15.804;2022-09-09T05:07:09;9.37;;;4.67;;
70026;SDS011;57506;50.092;15.804;2022-09-09T05:09:35;19.73;;;5.45;;
70026;SDS011;57506;50.092;15.804;2022-09-09T05:12:01;17.03;;;6.27;;
70026;SDS011;57506;50.092;15.804;2022-09-09T05:14:27;14.57;;;6.18;;
70026;SDS011;57506;50.092;15.804;2022-09-09T05:16:53;17.53;;;6.77;;
70026;SDS011;57506;50.092;15.804;2022-09-09T05:19:20;16.73;;;6.93;;
70026;SDS011;57506;50.092;15.804;2022-09-09T05:21:46;13.40;;;6.33;;
70026;SDS011;57506;50.092;15.804;2022-09-09T05:24:11;17.13;;;8.88;;
70026;SDS011;57506;50.092;15.804;2022-09-09T05:26:37;22.33;;;13.23;;
70026;SDS011;57506;50.092;15.804;2022-09-09T05:29:02;24.60;;;13.27;;
70026;SDS011;57506;50.092;15.804;2022-09-09T05:31:29;23.73;;;12.67;;
70026;SDS011;57506;50.092;15.804;2022-09-09T05:33:55;27.48;;;13.35;;
70026;SDS011;57506;50.092;15.804;2022-09-09T05:36:21;30.77;;;15.23;;
70026;SDS011;57506;50.092;15.804;2022-09-09T05:38:47;33.13;;;15.68;;
70026;SDS011;57506;50.092;15.804;2022-09-09T05:41:14;34.80;;;14.82;;
70026;SDS011;57506;50.092;15.804;2022-09-09T05:43:50;22.67;;;12.63;;
70026;SDS011;57506;50.092;15.804;2022-09-09T05:46:16;21.90;;;11.07;;
70026;SDS011;57506;50.092;15.804;2022-09-09T05:48:45;18.67;;;10.63;;
70026;SDS011;57506;50.092;15.804;2022-09-09T05:51:12;23.95;;;11.73;;
70026;SDS011;57506;50.092;15.804;2022-09-09T05:53:42;29.73;;;12.65;;
70026;SDS011;57506;50.092;15.804;2022-09-09T05:56:14;21.65;;;11.98;;
70026;SDS011;57506;50.092;15.804;2022-09-09T05:58:39;24.45;;;13.23;;
70026;SDS011;57506;50.092;15.804;2022-09-09T06:03:52;28.75;;;15.30;;
70026;SDS011;57506;50.092;15.804;2022-09-09T06:06:22;25.58;;;15.10;;
70026;SDS011;57506;50.092;15.804;2022-09-09T06:08:51;29.65;;;16.20;;
70026;SDS011;57506;50.092;15.804;2022-09-09T06:11:21;22.93;;;13.73;;
70026;SDS011;57506;50.092;15.804;2022-09-09T06:13:48;21.70;;;13.35;;
70026;SDS011;57506;50.092;15.804;2022-09-09T06:16:18;15.93;;;11.65;;
70026;SDS011;57506;50.092;15.804;2022-09-09T06:18:45;14.48;;;9.43;;
70026;SDS011;57506;50.092;15.804;2022-09-09T06:21:17;13.93;;;8.77;;
70026;SDS011;57506;50.092;15.804;2022-09-09T06:23:44;12.45;;;8.48;;
70026;SDS011;57506;50.092;15.804;2022-09-09T06:26:11;12.27;;;8.20;;
70026;SDS011;57506;50.092;15.804;2022-09-09T06:28:38;10.80;;;7.40;;
70026;SDS011;57506;50.092;15.804;2022-09-09T06:31:05;11.07;;;7.47;;
70026;SDS011;57506;50.092;15.804;2022-09-09T06:33:36;10.65;;;7.45;;
70026;SDS011;57506;50.092;15.804;2022-09-09T06:36:06;11.75;;;8.35;;
70026;SDS011;57506;50.092;15.804;2022-09-09T06:38:40;14.88;;;8.82;;
70026;SDS011;57506;50.092;15.804;2022-09-09T06:41:07;11.43;;;8.13;;
70026;SDS011;57506;50.092;15.804;2022-09-09T06:43:34;13.10;;;7.07;;
70026;SDS011;57506;50.092;15.804;2022-09-09T06:46:06;10.88;;;6.85;;
70026;SDS011;57506;50.092;15.804;2022-09-09T06:48:35;8.20;;;6.40;;
70026;SDS011;57506;50.092;15.804;2022-09-09T06:53:31;9.27;;;6.00;;
70026;SDS011;57506;50.092;15.804;2022-09-09T06:55:59;8.37;;;5.53;;
70026;SDS011;57506;50.092;15.804;2022-09-09T06:58:27;9.60;;;5.18;;
70026;SDS011;57506;50.092;15.804;2022-09-09T07:01:01;8.10;;;4.93;;
70026;SDS011;57506;50.092;15.804;2022-09-09T07:03:32;6.43;;;4.95;;
70026;SDS011;57506;50.092;15.804;2022-09-09T07:05:58;7.25;;;4.53;;
70026;SDS011;57506;50.092;15.804;2022-09-09T07:08:25;8.43;;;4.67;;
70026;SDS011;57506;50.092;15.804;2022-09-09T07:10:51;8.27;;;4.60;;
70026;SDS011;57506;50.092;15.804;2022-09-09T07:13:25;7.47;;;4.07;;
70026;SDS011;57506;50.092;15.804;2022-09-09T07:15:51;8.38;;;4.07;;
70026;SDS011;57506;50.092;15.804;2022-09-09T07:18:17;6.72;;;4.13;;
70026;SDS011;57506;50.092;15.804;2022-09-09T07:20:43;6.97;;;4.37;;
70026;SDS011;57506;50.092;15.804;2022-09-09T07:23:18;8.25;;;4.68;;
70026;SDS011;57506;50.092;15.804;2022-09-09T07:25:46;9.90;;;4.50;;
70026;SDS011;57506;50.092;15.804;2022-09-09T07:28:12;7.93;;;4.30;;
70026;SDS011;57506;50.092;15.804;2022-09-09T07:30:38;6.18;;;4.05;;
70026;SDS011;57506;50.092;15.804;2022-09-09T07:33:05;5.93;;;4.10;;
70026;SDS011;57506;50.092;15.804;2022-09-09T07:35:30;7.37;;;4.10;;
70026;SDS011;57506;50.092;15.804;2022-09-09T07:37:56;5.90;;;4.00;;
70026;SDS011;57506;50.092;15.804;2022-09-09T07:40:23;6.35;;;4.05;;
70026;SDS011;57506;50.092;15.804;2022-09-09T07:42:49;7.13;;;4.20;;
70026;SDS011;57506;50.092;15.804;2022-09-09T07:45:15;5.88;;;3.38;;
70026;SDS011;57506;50.092;15.804;2022-09-09T07:47:41;6.07;;;3.30;;
70026;SDS011;57506;50.092;15.804;2022-09-09T07:50:07;4.57;;;3.00;;
70026;SDS011;57506;50.092;15.804;2022-09-09T07:52:34;5.30;;;3.20;;
70026;SDS011;57506;50.092;15.804;2022-09-09T07:55:00;5.03;;;3.40;;
70026;SDS011;57506;50.092;15.804;2022-09-09T07:57:28;5.05;;;2.92;;
70026;SDS011;57506;50.092;15.804;2022-09-09T07:59:55;6.40;;;3.10;;
70026;SDS011;57506;50.092;15.804;2022-09-09T08:02:21;5.85;;;2.90;;
70026;SDS011;57506;50.092;15.804;2022-09-09T08:04:48;5.30;;;2.85;;
70026;SDS011;57506;50.092;15.804;2022-09-09T08:07:14;5.60;;;2.72;;
70026;SDS011;57506;50.092;15.804;2022-09-09T08:09:41;5.97;;;2.90;;
70026;SDS011;57506;50.092;15.804;2022-09-09T08:12:06;4.97;;;2.65;;
70026;SDS011;57506;50.092;15.804;2022-09-09T08:14:33;4.05;;;2.35;;
70026;SDS011;57506;50.092;15.804;2022-09-09T08:16:58;6.03;;;2.50;;
70026;SDS011;57506;50.092;15.804;2022-09-09T08:19:24;6.82;;;2.60;;
70026;SDS011;57506;50.092;15.804;2022-09-09T08:21:50;6.90;;;2.07;;
70026;SDS011;57506;50.092;15.804;2022-09-09T08:24:15;5.07;;;2.00;;
70026;SDS011;57506;50.092;15.804;2022-09-09T08:26:42;6.85;;;2.20;;
70026;SDS011;57506;50.092;15.804;2022-09-09T08:29:09;6.22;;;2.47;;
70026;SDS011;57506;50.092;15.804;2022-09-09T08:31:42;3.72;;;1.98;;
70026;SDS011;57506;50.092;15.804;2022-09-09T08:34:22;5.00;;;2.58;;
70026;SDS011;57506;50.092;15.804;2022-09-09T08:36:49;4.70;;;2.30;;
70026;SDS011;57506;50.092;15.804;2022-09-09T08:39:16;4.35;;;2.00;;
70026;SDS011;57506;50.092;15.804;2022-09-09T08:52:32;4.22;;;1.70;;
70026;SDS011;57506;50.092;15.804;2022-09-09T08:55:11;5.65;;;1.80;;
70026;SDS011;57506;50.092;15.804;2022-09-09T08:57:38;3.97;;;1.90;;
70026;SDS011;57506;50.092;15.804;2022-09-09T09:00:04;5.93;;;1.90;;
70026;SDS011;57506;50.092;15.804;2022-09-09T09:05:23;5.28;;;1.90;;
70026;SDS011;57506;50.092;15.804;2022-09-09T09:10:51;4.97;;;2.03;;
70026;SDS011;57506;50.092;15.804;2022-09-09T09:16:13;6.35;;;2.33;;
70026;SDS011;57506;50.092;15.804;2022-09-09T09:18:47;5.35;;;2.03;;
70026;SDS011;57506;50.092;15.804;2022-09-09T09:21:48;6.20;;;2.28;;
70026;SDS011;57506;50.092;15.804;2022-09-09T09:24:28;5.00;;;2.35;;
70026;SDS011;57506;50.092;15.804;2022-09-09T09:26:57;5.60;;;1.80;;
70026;SDS011;57506;50.092;15.804;2022-09-09T09:29:26;5.90;;;2.05;;
70026;SDS011;57506;50.092;15.804;2022-09-09T09:31:52;4.45;;;2.13;;
70026;SDS011;57506;50.092;15.804;2022-09-09T09:34:22;5.17;;;1.90;;
70026;SDS011;57506;50.092;15.804;2022-09-09T09:36:56;6.00;;;2.00;;
70026;SDS011;57506;50.092;15.804;2022-09-09T09:39:27;4.65;;;1.77;;
70026;SDS011;57506;50.092;15.804;2022-09-09T09:41:53;3.95;;;1.80;;
70026;SDS011;57506;50.092;15.804;2022-09-09T09:47:19;4.60;;;1.83;;
70026;SDS011;57506;50.092;15.804;2022-09-09T09:49:56;4.35;;;1.90;;
70026;SDS011;57506;50.092;15.804;2022-09-09T09:52:28;4.63;;;1.80;;
70026;SDS011;57506;50.092;15.804;2022-09-09T09:54:56;6.18;;;1.85;;
70026;SDS011;57506;50.092;15.804;2022-09-09T09:57:25;6.53;;;2.00;;
70026;SDS011;57506;50.092;15.804;2022-09-09T10:00:03;6.23;;;2.00;;
70026;SDS011;57506;50.092;15.804;2022-09-09T10:02:41;6.88;;;2.03;;
70026;SDS011;57506;50.092;15.804;2022-09-09T10:07:41;4.35;;;1.67;;
70026;SDS011;57506;50.092;15.804;2022-09-09T10:13:34;5.33;;;2.10;;
70026;SDS011;57506;50.092;15.804;2022-09-09T10:19:03;5.47;;;1.75;;
70026;SDS011;57506;50.092;15.804;2022-09-09T10:35:27;8.50;;;3.30;;
70026;SDS011;57506;50.092;15.804;2022-09-09T10:38:13;4.15;;;1.60;;
70026;SDS011;57506;50.092;15.804;2022-09-09T10:57:04;4.53;;;1.65;;
70026;SDS011;57506;50.092;15.804;2022-09-09T10:59:48;5.10;;;1.45;;
70026;SDS011;57506;50.092;15.804;2022-09-09T11:02:27;5.60;;;1.42;;
70026;SDS011;57506;50.092;15.804;2022-09-09T11:04:55;5.30;;;1.70;;
70026;SDS011;57506;50.092;15.804;2022-09-09T11:07:28;3.93;;;1.60;;
70026;SDS011;57506;50.092;15.804;2022-09-09T11:12:53;4.90;;;1.48;;
70026;SDS011;57506;50.092;15.804;2022-09-09T11:15:29;3.40;;;1.30;;
70026;SDS011;57506;50.092;15.804;2022-09-09T11:18:05;4.20;;;1.38;;
70026;SDS011;57506;50.092;15.804;2022-09-09T11:20:38;9.03;;;1.50;;
70026;SDS011;57506;50.092;15.804;2022-09-09T11:23:07;3.42;;;1.13;;
70026;SDS011;57506;50.092;15.804;2022-09-09T11:25:39;3.83;;;1.30;;
70026;SDS011;57506;50.092;15.804;2022-09-09T11:44:39;3.67;;;1.20;;
70026;SDS011;57506;50.092;15.804;2022-09-09T11:50:07;5.18;;;1.40;;
70026;SDS011;57506;50.092;15.804;2022-09-09T11:52:43;4.07;;;1.25;;
70026;SDS011;57506;50.092;15.804;2022-09-09T11:55:26;5.88;;;1.30;;
70026;SDS011;57506;50.092;15.804;2022-09-09T12:00:40;4.20;;;1.33;;
70026;SDS011;57506;50.092;15.804;2022-09-09T12:05:59;4.15;;;1.30;;
70026;SDS011;57506;50.092;15.804;2022-09-09T12:08:33;6.97;;;1.30;;
70026;SDS011;57506;50.092;15.804;2022-09-09T12:11:01;4.15;;;1.40;;
70026;SDS011;57506;50.092;15.804;2022-09-09T12:13:29;4.17;;;1.27;;
70026;SDS011;57506;50.092;15.804;2022-09-09T12:15:57;3.55;;;1.23;;
70026;SDS011;57506;50.092;15.804;2022-09-09T12:23:37;3.95;;;1.00;;
70026;SDS011;57506;50.092;15.804;2022-09-09T12:31:59;4.95;;;1.40;;
70026;SDS011;57506;50.092;15.804;2022-09-09T12:34:39;6.38;;;1.10;;
70026;SDS011;57506;50.092;15.804;2022-09-09T12:39:44;3.53;;;1.20;;
70026;SDS011;57506;50.092;15.804;2022-09-09T12:42:18;4.50;;;1.27;;
70026;SDS011;57506;50.092;15.804;2022-09-09T12:45:19;6.20;;;0.85;;
70026;SDS011;57506;50.092;15.804;2022-09-09T12:47:57;4.55;;;1.42;;
70026;SDS011;57506;50.092;15.804;2022-09-09T12:50:35;6.63;;;1.33;;
70026;SDS011;57506;50.092;15.804;2022-09-09T12:53:22;3.20;;;0.90;;
70026;SDS011;57506;50.092;15.804;2022-09-09T12:55:57;6.00;;;1.40;;
70026;SDS011;57506;50.092;15.804;2022-09-09T12:58:25;4.82;;;1.00;;
70026;SDS011;57506;50.092;15.804;2022-09-09T13:00:54;7.70;;;1.23;;
70026;SDS011;57506;50.092;15.804;2022-09-09T13:03:22;5.40;;;1.20;;
70026;SDS011;57506;50.092;15.804;2022-09-09T13:05:49;6.10;;;1.00;;
70026;SDS011;57506;50.092;15.804;2022-09-09T13:08:16;5.10;;;1.40;;
70026;SDS011;57506;50.092;15.804;2022-09-09T13:10:59;3.47;;;1.20;;
70026;SDS011;57506;50.092;15.804;2022-09-09T13:13:31;4.88;;;1.20;;
70026;SDS011;57506;50.092;15.804;2022-09-09T13:16:03;3.67;;;1.10;;
70026;SDS011;57506;50.092;15.804;2022-09-09T13:18:34;4.90;;;1.43;;
70026;SDS011;57506;50.092;15.804;2022-09-09T13:21:01;5.60;;;1.08;;
70026;SDS011;57506;50.092;15.804;2022-09-09T13:23:29;4.93;;;1.30;;
70026;SDS011;57506;50.092;15.804;2022-09-09T13:30:57;4.40;;;1.30;;
70026;SDS011;57506;50.092;15.804;2022-09-09T13:33:36;3.50;;;1.23;;
70026;SDS011;57506;50.092;15.804;2022-09-09T13:36:09;4.00;;;1.15;;
70026;SDS011;57506;50.092;15.804;2022-09-09T13:38:38;4.55;;;1.17;;
70026;SDS011;57506;50.092;15.804;2022-09-09T13:41:30;3.83;;;1.38;;
70026;SDS011;57506;50.092;15.804;2022-09-09T13:43:58;4.03;;;1.30;;
70026;SDS011;57506;50.092;15.804;2022-09-09T13:46:36;4.15;;;1.40;;
70026;SDS011;57506;50.092;15.804;2022-09-09T13:54:05;3.90;;;1.20;;
70026;SDS011;57506;50.092;15.804;2022-09-09T13:56:34;4.60;;;1.23;;
70026;SDS011;57506;50.092;15.804;2022-09-09T13:59:01;5.53;;;1.17;;
70026;SDS011;57506;50.092;15.804;2022-09-09T14:01:27;4.70;;;1.40;;
70026;SDS011;57506;50.092;15.804;2022-09-09T14:04:03;4.18;;;1.15;;
70026;SDS011;57506;50.092;15.804;2022-09-09T14:06:31;5.85;;;1.50;;
70026;SDS011;57506;50.092;15.804;2022-09-09T14:08:57;3.17;;;1.10;;
70026;SDS011;57506;50.092;15.804;2022-09-09T14:11:23;6.50;;;1.30;;
70026;SDS011;57506;50.092;15.804;2022-09-09T14:13:49;6.10;;;1.17;;
70026;SDS011;57506;50.092;15.804;2022-09-09T14:16:15;3.87;;;1.10;;
70026;SDS011;57506;50.092;15.804;2022-09-09T14:18:42;3.50;;;1.00;;
70026;SDS011;57506;50.092;15.804;2022-09-09T14:21:09;4.03;;;1.20;;
70026;SDS011;57506;50.092;15.804;2022-09-09T14:23:35;3.13;;;0.80;;
70026;SDS011;57506;50.092;15.804;2022-09-09T14:26:00;6.28;;;1.40;;
70026;SDS011;57506;50.092;15.804;2022-09-09T14:28:26;4.80;;;1.00;;
70026;SDS011;57506;50.092;15.804;2022-09-09T14:30:53;4.47;;;1.20;;
70026;SDS011;57506;50.092;15.804;2022-09-09T14:33:19;3.78;;;1.13;;
70026;SDS011;57506;50.092;15.804;2022-09-09T14:35:44;3.83;;;1.30;;
70026;SDS011;57506;50.092;15.804;2022-09-09T14:38:10;3.55;;;1.00;;
70026;SDS011;57506;50.092;15.804;2022-09-09T14:40:36;3.60;;;1.13;;
70026;SDS011;57506;50.092;15.804;2022-09-09T14:43:03;3.88;;;1.13;;
70026;SDS011;57506;50.092;15.804;2022-09-09T14:45:30;7.00;;;1.30;;
70026;SDS011;57506;50.092;15.804;2022-09-09T14:47:55;3.97;;;1.20;;
70026;SDS011;57506;50.092;15.804;2022-09-09T14:50:22;5.13;;;1.05;;
70026;SDS011;57506;50.092;15.804;2022-09-09T14:52:48;4.97;;;1.30;;
70026;SDS011;57506;50.092;15.804;2022-09-09T14:55:14;4.03;;;1.23;;
70026;SDS011;57506;50.092;15.804;2022-09-09T14:57:40;5.80;;;1.35;;
70026;SDS011;57506;50.092;15.804;2022-09-09T15:00:07;4.80;;;1.33;;
70026;SDS011;57506;50.092;15.804;2022-09-09T15:02:33;4.27;;;1.30;;
70026;SDS011;57506;50.092;15.804;2022-09-09T15:04:59;3.58;;;1.30;;
70026;SDS011;57506;50.092;15.804;2022-09-09T15:07:25;5.20;;;1.20;;
70026;SDS011;57506;50.092;15.804;2022-09-09T15:09:52;4.15;;;1.30;;
70026;SDS011;57506;50.092;15.804;2022-09-09T15:12:18;4.68;;;1.40;;
70026;SDS011;57506;50.092;15.804;2022-09-09T15:14:44;4.03;;;1.25;;
70026;SDS011;57506;50.092;15.804;2022-09-09T15:17:10;4.20;;;1.10;;
70026;SDS011;57506;50.092;15.804;2022-09-09T15:19:36;4.25;;;1.27;;
70026;SDS011;57506;50.092;15.804;2022-09-09T15:22:03;4.97;;;1.40;;
70026;SDS011;57506;50.092;15.804;2022-09-09T15:24:31;3.25;;;1.10;;
70026;SDS011;57506;50.092;15.804;2022-09-09T15:26:57;7.28;;;1.38;;
70026;SDS011;57506;50.092;15.804;2022-09-09T15:29:23;3.93;;;1.57;;
70026;SDS011;57506;50.092;15.804;2022-09-09T15:31:49;5.50;;;1.70;;
70026;SDS011;57506;50.092;15.804;2022-09-09T15:34:15;6.32;;;1.40;;
70026;SDS011;57506;50.092;15.804;2022-09-09T15:36:42;5.60;;;1.60;;
70026;SDS011;57506;50.092;15.804;2022-09-09T15:39:10;5.22;;;1.67;;
70026;SDS011;57506;50.092;15.804;2022-09-09T15:41:38;4.00;;;1.73;;
70026;SDS011;57506;50.092;15.804;2022-09-09T15:44:04;3.75;;;1.38;;
70026;SDS011;57506;50.092;15.804;2022-09-09T15:46:31;3.87;;;1.27;;
70026;SDS011;57506;50.092;15.804;2022-09-09T15:49:09;5.72;;;1.70;;
70026;SDS011;57506;50.092;15.804;2022-09-09T15:51:36;4.60;;;1.80;;
70026;SDS011;57506;50.092;15.804;2022-09-09T15:54:02;3.78;;;1.33;;
70026;SDS011;57506;50.092;15.804;2022-09-09T15:56:29;6.18;;;1.30;;
70026;SDS011;57506;50.092;15.804;2022-09-09T15:58:56;4.03;;;1.30;;
70026;SDS011;57506;50.092;15.804;2022-09-09T16:01:22;4.43;;;1.40;;
70026;SDS011;57506;50.092;15.804;2022-09-09T16:03:49;3.80;;;1.15;;
70026;SDS011;57506;50.092;15.804;2022-09-09T16:06:20;3.50;;;1.05;;
70026;SDS011;57506;50.092;15.804;2022-09-09T16:08:51;5.25;;;1.13;;
70026;SDS011;57506;50.092;15.804;2022-09-09T16:11:19;4.30;;;1.53;;
70026;SDS011;57506;50.092;15.804;2022-09-09T16:13:51;4.38;;;1.40;;
70026;SDS011;57506;50.092;15.804;2022-09-09T16:16:18;4.68;;;1.38;;
70026;SDS011;57506;50.092;15.804;2022-09-09T16:18:47;4.32;;;1.40;;
70026;SDS011;57506;50.092;15.804;2022-09-09T16:21:33;3.78;;;1.20;;
70026;SDS011;57506;50.092;15.804;2022-09-09T16:24:05;4.60;;;0.90;;
70026;SDS011;57506;50.092;15.804;2022-09-09T16:26:33;2.90;;;0.80;;
70026;SDS011;57506;50.092;15.804;2022-09-09T16:29:01;3.72;;;0.90;;
70026;SDS011;57506;50.092;15.804;2022-09-09T16:31:28;6.63;;;0.80;;
70026;SDS011;57506;50.092;15.804;2022-09-09T16:33:55;5.78;;;1.00;;
70026;SDS011;57506;50.092;15.804;2022-09-09T16:36:21;4.47;;;0.90;;
70026;SDS011;57506;50.092;15.804;2022-09-09T16:38:52;7.60;;;1.00;;
70026;SDS011;57506;50.092;15.804;2022-09-09T16:41:20;5.10;;;1.02;;
70026;SDS011;57506;50.092;15.804;2022-09-09T16:43:46;4.80;;;1.05;;
70026;SDS011;57506;50.092;15.804;2022-09-09T16:46:13;4.10;;;0.87;;
70026;SDS011;57506;50.092;15.804;2022-09-09T16:48:42;4.55;;;1.00;;
70026;SDS011;57506;50.092;15.804;2022-09-09T16:51:11;4.32;;;0.95;;
70026;SDS011;57506;50.092;15.804;2022-09-09T16:53:42;4.88;;;1.02;;
70026;SDS011;57506;50.092;15.804;2022-09-09T16:56:09;4.33;;;0.97;;
70026;SDS011;57506;50.092;15.804;2022-09-09T16:58:39;2.90;;;0.82;;
70026;SDS011;57506;50.092;15.804;2022-09-09T17:01:06;3.10;;;1.00;;
70026;SDS011;57506;50.092;15.804;2022-09-09T17:03:32;5.43;;;1.30;;
70026;SDS011;57506;50.092;15.804;2022-09-09T17:05:58;3.83;;;0.80;;
70026;SDS011;57506;50.092;15.804;2022-09-09T17:08:28;4.95;;;1.10;;
70026;SDS011;57506;50.092;15.804;2022-09-09T17:10:54;5.10;;;1.00;;
70026;SDS011;57506;50.092;15.804;2022-09-09T17:13:20;4.13;;;0.97;;
70026;SDS011;57506;50.092;15.804;2022-09-09T17:15:46;5.72;;;0.80;;
70026;SDS011;57506;50.092;15.804;2022-09-09T17:18:12;5.57;;;1.50;;
70026;SDS011;57506;50.092;15.804;2022-09-09T17:20:40;4.13;;;1.33;;
70026;SDS011;57506;50.092;15.804;2022-09-09T17:23:07;4.72;;;1.20;;
70026;SDS011;57506;50.092;15.804;2022-09-09T17:25:34;4.85;;;1.40;;
70026;SDS011;57506;50.092;15.804;2022-09-09T17:28:00;3.83;;;1.07;;
70026;SDS011;57506;50.092;15.804;2022-09-09T17:30:29;3.85;;;1.15;;
70026;SDS011;57506;50.092;15.804;2022-09-09T17:32:58;3.03;;;0.98;;
70026;SDS011;57506;50.092;15.804;2022-09-09T17:35:25;4.18;;;0.95;;